createdAt,value
2019-04-06T00:00:34.821Z,95363.05
2019-04-06T00:03:00.618Z,95366.95
2019-04-06T00:05:26.440Z,95376.73
2019-04-06T00:07:52.278Z,95370.20
2019-04-06T00:10:18.322Z,95367.27
2019-04-06T00:12:44.409Z,95360.73
2019-04-06T00:15:10.558Z,95358.66
2019-04-06T00:17:41.291Z,95361.44
2019-04-06T00:20:07.568Z,95359.03
2019-04-06T00:22:37.145Z,95358.38
2019-04-06T00:25:05.034Z,95352.98
2019-04-06T00:27:30.822Z,95347.44
2019-04-06T00:29:56.906Z,95344.87
2019-04-06T00:32:27.636Z,95287.22
2019-04-06T00:34:53.498Z,95361.06
2019-04-06T00:37:19.270Z,95349.63
2019-04-06T00:39:45.099Z,95347.53
2019-04-06T00:42:10.928Z,95345.77
2019-04-06T00:44:36.759Z,95347.53
2019-04-06T00:47:02.647Z,95332.42
2019-04-06T00:49:30.027Z,95343.47
2019-04-06T00:51:55.840Z,95343.11
2019-04-06T00:54:24.863Z,95342.55
2019-04-06T00:56:50.913Z,95338.50
2019-04-06T00:59:19.796Z,95341.24
2019-04-06T01:01:45.579Z,95333.42
2019-04-06T01:04:13.909Z,95331.65
2019-04-06T01:06:39.719Z,95333.33
2019-04-06T01:09:08.740Z,95336.64
2019-04-06T01:11:34.546Z,95344.81
2019-04-06T01:14:00.751Z,95336.02
2019-04-06T01:16:26.539Z,95328.72
2019-04-06T01:18:52.354Z,95327.78
2019-04-06T01:21:21.253Z,95330.20
2019-04-06T01:23:47.092Z,95332.61
2019-04-06T01:26:16.056Z,95333.17
2019-04-06T01:28:42.107Z,95331.80
2019-04-06T01:31:11.136Z,95344.78
2019-04-06T01:33:36.939Z,95347.55
2019-04-06T01:36:05.553Z,95325.84
2019-04-06T01:38:31.353Z,95321.21
2019-04-06T01:40:59.955Z,95320.56
2019-04-06T01:43:25.803Z,95320.77
2019-04-06T01:45:54.611Z,95320.03
2019-04-06T01:48:20.412Z,95316.06
2019-04-06T01:50:46.245Z,95320.94
2019-04-06T01:53:12.317Z,95337.31
2019-04-06T01:55:38.376Z,95314.03
2019-04-06T01:58:05.509Z,95315.88
2019-04-06T02:00:31.323Z,95317.45
2019-04-06T02:03:00.051Z,95314.77
2019-04-06T02:05:25.874Z,95316.97
2019-04-06T02:07:54.785Z,95318.25
2019-04-06T02:10:20.968Z,95309.44
2019-04-06T02:12:50.135Z,95317.44
2019-04-06T02:15:16.036Z,95337.84
2019-04-06T02:17:44.914Z,95321.72
2019-04-06T02:20:10.809Z,95339.02
2019-04-06T02:22:39.591Z,95323.01
2019-04-06T02:25:05.695Z,95345.80
2019-04-06T02:27:31.610Z,95331.47
2019-04-06T02:30:17.294Z,95329.55
2019-04-06T02:33:02.104Z,95329.78
2019-04-06T02:35:39.480Z,95332.62
2019-04-06T02:38:10.171Z,95334.93
2019-04-06T02:40:37.967Z,95335.69
2019-04-06T02:43:08.612Z,95331.98
2019-04-06T02:45:34.552Z,95338.17
2019-04-06T02:48:00.523Z,95332.05
2019-04-06T02:50:26.319Z,95349.02
2019-04-06T02:52:52.132Z,95336.13
2019-04-06T02:55:18.190Z,95333.70
2019-04-06T02:57:44.016Z,95336.25
2019-04-06T03:00:10.209Z,95334.34
2019-04-06T03:02:36.124Z,95338.34
2019-04-06T03:05:04.143Z,95338.67
2019-04-06T03:07:29.951Z,95333.53
2019-04-06T03:09:55.763Z,95332.36
2019-04-06T03:12:21.618Z,95327.80
2019-04-06T03:14:47.672Z,95328.80
2019-04-06T03:17:13.453Z,95328.27
2019-04-06T03:19:39.506Z,95327.61
2019-04-06T03:22:05.601Z,95331.84
2019-04-06T03:24:31.515Z,95333.65
2019-04-06T03:27:01.762Z,95331.44
2019-04-06T03:29:24.996Z,95327.00
2019-04-06T03:31:50.915Z,95332.55
2019-04-06T03:34:21.570Z,95322.11
2019-04-06T03:36:44.772Z,95326.89
2019-04-06T03:39:10.599Z,95326.27
2019-04-06T03:41:36.419Z,95334.05
2019-04-06T03:44:02.312Z,95332.40
2019-04-06T03:46:28.130Z,95333.59
2019-04-06T03:48:53.939Z,95337.05
2019-04-06T03:51:20.025Z,95340.11
2019-04-06T03:53:45.836Z,95337.50
2019-04-06T03:56:11.672Z,95339.45
2019-04-06T03:58:37.540Z,95336.06
2019-04-06T04:01:03.597Z,95337.67
2019-04-06T04:03:29.677Z,95328.50
2019-04-06T04:05:55.476Z,95320.42
2019-04-06T04:08:21.299Z,95326.92
2019-04-06T04:10:47.994Z,95332.06
2019-04-06T04:13:13.917Z,95325.19
2019-04-06T04:15:39.867Z,95330.33
2019-04-06T04:18:06.050Z,95314.50
2019-04-06T04:20:31.906Z,95320.14
2019-04-06T04:22:57.709Z,95318.06
2019-04-06T04:25:23.778Z,95319.64
2019-04-06T04:27:49.661Z,95315.33
2019-04-06T04:30:20.536Z,95316.93
2019-04-06T04:32:43.566Z,95318.88
2019-04-06T04:35:09.387Z,95325.55
2019-04-06T04:37:35.190Z,95325.35
2019-04-06T04:40:01.300Z,95333.61
2019-04-06T04:42:27.083Z,95334.97
2019-04-06T04:44:52.935Z,95327.63
2019-04-06T04:47:18.741Z,95338.95
2019-04-06T04:49:44.555Z,95332.03
2019-04-06T04:52:10.677Z,95342.38
2019-04-06T04:54:36.488Z,95340.12
2019-04-06T04:57:02.678Z,95339.83
2019-04-06T04:59:28.772Z,95343.13
2019-04-06T05:01:54.746Z,95340.48
2019-04-06T05:04:20.670Z,95343.25
2019-04-06T05:06:49.975Z,95347.34
2019-04-06T05:09:16.063Z,95345.21
2019-04-06T05:11:41.862Z,95345.20
2019-04-06T05:14:45.649Z,95334.79
2019-04-06T05:17:11.481Z,95341.22
2019-04-06T05:19:37.572Z,95337.85
2019-04-06T05:22:03.518Z,95342.03
2019-04-06T05:24:29.314Z,95340.66
2019-04-06T05:26:55.439Z,95350.58
2019-04-06T05:29:21.361Z,95346.95
2019-04-06T05:31:47.114Z,95355.92
2019-04-06T05:34:12.931Z,95349.34
2019-04-06T05:36:38.994Z,95351.72
2019-04-06T05:39:04.895Z,95349.34
2019-04-06T05:41:30.811Z,95347.00
2019-04-06T05:43:56.994Z,95348.03
2019-04-06T05:46:22.810Z,95353.84
2019-04-06T05:48:48.897Z,95351.27
2019-04-06T05:51:14.709Z,95357.45
2019-04-06T05:53:40.532Z,95360.42
2019-04-06T05:56:06.774Z,95366.48
2019-04-06T05:58:32.633Z,95370.86
2019-04-06T06:00:58.457Z,95361.88
2019-04-06T06:03:24.279Z,95361.88
2019-04-06T06:05:50.076Z,95371.34
2019-04-06T06:08:16.136Z,95381.75
2019-04-06T06:10:42.016Z,95379.13
2019-04-06T06:13:08.064Z,95375.94
2019-04-06T06:15:34.084Z,95381.60
2019-04-06T06:18:00.251Z,95382.08
2019-04-06T06:20:26.053Z,95379.81
2019-04-06T06:22:51.854Z,95381.99
2019-04-06T06:25:17.765Z,95372.94
2019-04-06T06:27:43.867Z,95378.00
2019-04-06T06:30:10.087Z,95378.30
2019-04-06T06:32:35.963Z,95382.88
2019-04-06T06:35:02.884Z,95381.04
2019-04-06T06:37:29.060Z,95380.41
2019-04-06T06:39:58.241Z,95373.15
2019-04-06T06:42:24.043Z,95391.11
2019-04-06T06:44:50.161Z,95368.59
2019-04-06T06:47:15.969Z,95376.88
2019-04-06T06:49:41.764Z,95376.23
2019-04-06T06:52:10.372Z,95381.89
2019-04-06T06:54:36.483Z,95377.16
2019-04-06T06:57:05.587Z,95398.37
2019-04-06T06:59:31.415Z,95401.46
2019-04-06T07:01:57.331Z,95385.45
2019-04-06T07:04:23.391Z,95237.48
2019-04-06T07:06:54.000Z,95388.70
2019-04-06T07:09:19.818Z,95383.91
2019-04-06T07:11:46.997Z,95391.16
2019-04-06T07:14:13.086Z,95408.14
2019-04-06T07:16:41.896Z,95382.39
2019-04-06T07:19:07.948Z,95402.28
2019-04-06T07:21:33.742Z,95382.16
2019-04-06T07:23:59.569Z,95384.58
2019-04-06T07:26:25.592Z,95380.67
2019-04-06T07:28:54.181Z,95378.50
2019-04-06T07:31:20.304Z,95385.58
2019-04-06T07:33:49.151Z,95378.19
2019-04-06T07:36:15.372Z,95379.89
2019-04-06T07:38:44.030Z,95381.25
2019-04-06T07:41:09.827Z,95383.25
2019-04-06T07:43:38.713Z,95367.70
2019-04-06T07:46:04.553Z,95365.55
2019-04-06T07:48:33.467Z,95358.09
2019-04-06T07:50:59.362Z,95379.55
2019-04-06T07:53:28.385Z,95357.59
2019-04-06T07:55:54.488Z,95366.47
2019-04-06T07:58:20.470Z,95351.88
2019-04-06T08:00:46.324Z,95346.72
2019-04-06T08:03:12.140Z,95349.91
2019-04-06T08:05:41.039Z,95347.20
2019-04-06T08:08:07.096Z,95346.26
2019-04-06T08:10:36.304Z,95337.02
2019-04-06T08:13:02.127Z,95354.44
2019-04-06T08:15:30.989Z,95343.70
2019-04-06T08:17:56.796Z,95341.43
2019-04-06T08:20:22.896Z,95337.50
2019-04-06T08:22:49.170Z,95350.13
2019-04-06T08:25:18.377Z,95330.54
2019-04-06T08:27:44.198Z,95350.59
2019-04-06T08:30:12.928Z,95332.19
2019-04-06T08:32:38.924Z,95329.62
2019-04-06T08:35:05.723Z,95331.52
2019-04-06T08:37:31.532Z,95335.05
2019-04-06T08:39:57.671Z,95331.07
2019-04-06T08:42:26.758Z,95333.48
2019-04-06T08:44:52.847Z,95344.12
2019-04-06T08:47:18.674Z,95332.31
2019-04-06T08:49:44.493Z,95330.72
2019-04-06T08:52:14.315Z,95326.28
2019-04-06T08:54:40.548Z,95325.69
2019-04-06T08:57:09.450Z,95324.86
2019-04-06T08:59:35.262Z,95341.76
2019-04-06T09:02:04.194Z,95325.12
2019-04-06T09:04:30.206Z,95331.66
2019-04-06T09:06:59.009Z,95327.81
2019-04-06T09:09:25.332Z,95330.59
2019-04-06T09:11:51.241Z,95313.59
2019-04-06T09:14:17.647Z,95313.66
2019-04-06T09:16:43.596Z,95312.73
2019-04-06T09:19:09.405Z,95318.71
2019-04-06T09:21:35.300Z,95305.50
2019-04-06T09:24:04.190Z,95310.98
2019-04-06T09:26:30.011Z,95308.33
2019-04-06T09:29:00.421Z,95309.92
2019-04-06T09:31:26.517Z,95307.55
2019-04-06T09:33:53.804Z,95310.14
2019-04-06T09:36:19.896Z,95303.88
2019-04-06T09:38:48.693Z,95295.56
2019-04-06T09:41:14.508Z,95294.74
2019-04-06T09:43:43.327Z,95294.28
2019-04-06T09:46:13.817Z,95294.71
2019-04-06T09:48:50.755Z,95292.58
2019-04-06T09:51:36.958Z,95284.36
2019-04-06T09:54:07.820Z,95281.61
2019-04-06T09:56:41.607Z,95274.69
2019-04-06T09:59:35.331Z,95274.33
2019-04-06T10:02:11.863Z,95272.97
2019-04-06T10:04:52.019Z,95278.02
2019-04-06T10:07:22.834Z,95277.55
2019-04-06T10:09:50.586Z,95263.44
2019-04-06T10:12:35.429Z,95269.31
2019-04-06T10:15:03.513Z,95268.22
2019-04-06T10:17:46.619Z,95270.75
2019-04-06T10:20:17.162Z,95267.52
2019-04-06T10:22:50.468Z,95270.41
2019-04-06T10:25:18.223Z,95267.47
2019-04-06T10:28:05.403Z,95272.29
2019-04-06T10:30:39.293Z,95263.67
2019-04-06T10:33:13.327Z,95253.05
2019-04-06T10:35:58.035Z,95248.08
2019-04-06T10:38:38.566Z,95249.34
2019-04-06T10:41:12.308Z,95242.72
2019-04-06T10:43:45.652Z,95246.27
2019-04-06T10:46:13.323Z,95257.72
2019-04-06T10:48:44.268Z,95241.42
2019-04-06T10:54:12.176Z,95231.34
2019-04-06T10:56:45.682Z,95227.17
2019-04-06T10:59:16.418Z,95222.81
2019-04-06T11:02:01.431Z,95205.90
2019-04-06T11:04:41.511Z,95208.48
2019-04-06T11:07:26.149Z,95208.36
2019-04-06T11:09:57.225Z,95213.52
2019-04-06T11:12:28.649Z,95218.58
2019-04-06T11:14:56.389Z,95226.34
2019-04-06T11:17:26.922Z,95218.11
2019-04-06T11:20:07.012Z,95229.52
2019-04-06T11:22:48.335Z,95222.95
2019-04-06T11:25:16.271Z,95224.23
2019-04-06T11:27:47.249Z,95222.58
2019-04-06T11:30:34.899Z,95219.23
2019-04-06T11:33:06.060Z,95231.89
2019-04-06T11:38:23.070Z,95221.59
2019-04-06T11:40:54.223Z,95221.22
2019-04-06T11:43:38.914Z,95221.59
2019-04-06T11:46:07.248Z,95227.15
2019-04-06T11:48:51.529Z,95230.86
2019-04-06T11:51:19.248Z,95239.66
2019-04-06T11:53:56.667Z,95237.17
2019-04-06T11:56:24.987Z,95242.67
2019-04-06T11:59:11.047Z,95241.99
2019-04-06T12:01:41.685Z,95242.39
2019-04-06T12:04:21.719Z,95246.31
2019-04-06T12:07:06.579Z,95239.14
2019-04-06T12:09:37.097Z,95246.18
2019-04-06T12:12:04.997Z,95258.31
2019-04-06T12:14:32.935Z,95250.34
2019-04-06T12:17:15.429Z,95246.40
2019-04-06T12:19:55.187Z,95240.90
2019-04-06T12:22:22.881Z,95238.53
2019-04-06T12:25:02.581Z,95236.33
2019-04-06T12:27:54.366Z,95230.69
2019-04-06T12:30:22.199Z,95230.77
2019-04-06T12:32:49.924Z,95237.11
2019-04-06T12:35:20.761Z,95239.14
2019-04-06T12:37:51.814Z,95242.09
2019-04-06T12:40:32.251Z,95241.93
2019-04-06T12:43:15.442Z,95235.75
2019-04-06T12:45:43.229Z,95238.34
2019-04-06T12:48:13.726Z,95235.48
2019-04-06T12:50:57.999Z,95228.33
2019-04-06T12:53:42.302Z,95232.89
2019-04-06T12:56:10.486Z,95232.10
2019-04-06T12:58:47.579Z,95233.69
2019-04-06T13:01:18.220Z,95229.13
2019-04-06T13:04:02.834Z,95219.97
2019-04-06T13:06:30.929Z,95215.23
2019-04-06T13:09:15.949Z,95209.53
2019-04-06T13:11:46.979Z,95205.34
2019-04-06T13:14:20.814Z,95203.17
2019-04-06T13:16:52.638Z,95204.27
2019-04-06T13:19:41.898Z,95208.77
2019-04-06T13:22:26.525Z,95213.36
2019-04-06T13:25:12.389Z,95200.86
2019-04-06T13:27:42.984Z,95190.06
2019-04-06T13:30:29.032Z,95198.51
2019-04-06T13:32:57.687Z,95191.95
2019-04-06T13:35:31.804Z,95194.84
2019-04-06T13:38:08.882Z,95189.66
2019-04-06T13:40:53.103Z,95195.56
2019-04-06T13:43:39.521Z,95202.81
2019-04-06T13:46:23.935Z,95193.20
2019-04-06T13:48:52.146Z,95186.47
2019-04-06T13:51:31.828Z,95176.48
2019-04-06T13:54:08.124Z,95184.52
2019-04-06T13:56:38.931Z,95188.62
2019-04-06T13:59:18.584Z,95184.80
2019-04-06T14:01:46.624Z,95185.38
2019-04-06T14:04:17.056Z,95186.86
2019-04-06T14:07:01.527Z,95192.33
2019-04-06T14:09:36.546Z,95187.56
2019-04-06T14:12:13.187Z,95190.75
2019-04-06T14:14:57.802Z,95183.08
2019-04-06T14:17:31.928Z,95186.59
2019-04-06T14:19:59.654Z,95179.53
2019-04-06T14:22:27.369Z,95173.39
2019-04-06T14:25:00.956Z,95175.64
2019-04-06T14:27:29.067Z,95173.37
2019-04-06T14:30:05.824Z,95179.95
2019-04-06T14:32:50.791Z,95178.15
2019-04-06T14:35:19.040Z,95179.78
2019-04-06T14:37:59.039Z,95175.28
2019-04-06T14:40:43.859Z,95174.94
2019-04-06T14:43:28.479Z,95182.70
2019-04-06T14:46:14.239Z,95165.90
2019-04-06T14:48:48.048Z,95165.20
2019-04-06T14:51:24.855Z,95156.54
2019-04-06T14:54:08.078Z,95153.61
2019-04-06T14:56:42.101Z,95156.62
2019-04-06T14:59:10.229Z,95154.00
2019-04-06T15:01:57.836Z,95149.72
2019-04-06T15:04:22.784Z,95155.00
2019-04-06T15:07:11.486Z,95151.38
2019-04-06T15:09:45.681Z,95150.22
2019-04-06T15:12:16.710Z,95152.52
2019-04-06T15:14:47.213Z,95148.73
2019-04-06T15:17:18.040Z,95157.26
2019-04-06T15:19:45.798Z,95155.95
2019-04-06T15:22:16.333Z,95154.00
2019-04-06T15:24:47.326Z,95149.39
2019-04-06T15:27:30.601Z,95151.38
2019-04-06T15:30:11.039Z,95147.90
2019-04-06T15:32:39.105Z,95144.09
2019-04-06T15:35:10.400Z,95137.54
2019-04-06T15:37:38.137Z,95140.47
2019-04-06T15:40:20.835Z,95138.77
2019-04-06T15:43:04.096Z,95150.31
2019-04-06T15:45:44.645Z,95058.17
2019-04-06T15:48:37.008Z,95131.35
2019-04-06T15:51:05.201Z,95136.91
2019-04-06T15:53:39.875Z,95136.52
2019-04-06T15:56:10.535Z,95130.37
2019-04-06T15:58:38.263Z,95128.45
2019-04-06T16:01:11.760Z,95122.71
2019-04-06T16:03:42.670Z,95113.92
2019-04-06T16:06:13.541Z,95116.18
2019-04-06T16:08:41.267Z,95112.93
2019-04-06T16:11:25.917Z,95114.81
2019-04-06T16:14:00.456Z,95123.37
2019-04-06T16:16:40.318Z,95123.37
2019-04-06T16:19:08.307Z,95114.17
2019-04-06T16:21:53.266Z,95104.91
2019-04-06T16:24:21.845Z,95111.40
2019-04-06T16:27:05.140Z,95108.45
2019-04-06T16:29:35.702Z,95109.09
2019-04-06T16:32:18.712Z,95109.09
2019-04-06T16:34:49.686Z,95110.46
2019-04-06T16:37:20.542Z,95113.48
2019-04-06T16:39:51.341Z,95114.05
2019-04-06T16:42:36.044Z,95114.27
2019-04-06T16:45:14.696Z,95108.83
2019-04-06T16:47:59.465Z,95112.88
2019-04-06T16:50:39.893Z,95113.08
2019-04-06T16:53:08.163Z,95107.09
2019-04-06T16:55:54.633Z,95109.61
2019-04-06T16:58:37.742Z,95111.39
2019-04-06T17:01:21.044Z,95110.63
2019-04-06T17:04:01.229Z,95120.17
2019-04-06T17:06:34.986Z,95120.17
2019-04-06T17:09:08.219Z,95119.55
2019-04-06T17:11:47.758Z,95122.99
2019-04-06T17:14:26.030Z,95121.49
2019-04-06T17:17:06.336Z,95113.61
2019-04-06T17:19:34.334Z,95114.91
2019-04-06T17:22:07.992Z,95117.52
2019-04-06T17:24:42.091Z,95118.45
2019-04-06T17:27:19.179Z,95114.02
2019-04-06T17:29:50.431Z,95118.38
2019-04-06T17:32:22.770Z,95115.10
2019-04-06T17:34:54.448Z,95120.29
2019-04-06T17:37:20.884Z,95117.61
2019-04-06T17:40:04.126Z,95118.38
2019-04-06T17:42:34.715Z,95115.87
2019-04-06T17:45:11.515Z,95113.21
2019-04-06T17:47:45.224Z,95113.53
2019-04-06T17:50:19.821Z,95124.66
2019-04-06T17:52:50.594Z,95122.00
2019-04-06T17:55:18.320Z,95131.41
2019-04-06T17:57:46.288Z,95126.48
2019-04-06T18:00:32.696Z,95129.57
2019-04-06T18:05:55.412Z,95127.57
2019-04-06T18:08:32.161Z,95133.53
2019-04-06T18:11:06.285Z,95136.67
2019-04-06T18:13:51.066Z,95141.05
2019-04-06T18:16:18.577Z,95137.83
2019-04-06T18:18:44.600Z,95137.23
2019-04-06T18:21:10.405Z,95134.88
2019-04-06T18:23:36.247Z,95138.02
2019-04-06T18:26:02.341Z,95141.74
2019-04-06T18:28:28.409Z,95150.34
2019-04-06T18:30:56.140Z,95156.00
2019-04-06T18:35:52.259Z,95139.11
2019-04-06T18:38:19.987Z,95166.98
2019-04-06T18:40:46.114Z,95164.14
2019-04-06T18:43:11.940Z,95172.94
2019-04-06T18:45:37.757Z,95170.66
2019-04-06T18:48:03.580Z,95171.87
2019-04-06T18:50:36.717Z,95177.19
2019-04-06T18:52:57.772Z,95174.44
2019-04-06T18:55:24.426Z,95181.12
2019-04-06T18:57:50.410Z,95177.44
2019-04-06T19:00:17.291Z,95173.45
2019-04-06T19:02:43.703Z,95179.77
2019-04-06T19:05:09.997Z,95177.76
2019-04-06T19:07:35.813Z,95181.93
2019-04-06T19:10:04.624Z,95184.42
2019-04-06T19:12:30.442Z,95187.24
2019-04-06T19:14:56.547Z,95187.03
2019-04-06T19:17:22.585Z,95184.72
2019-04-06T19:19:48.865Z,95188.16
2019-04-06T19:22:14.983Z,95189.87
2019-04-06T19:24:41.039Z,95195.08
2019-04-06T19:27:06.872Z,95193.44
2019-04-06T19:29:32.974Z,95192.45
2019-04-06T19:31:59.029Z,95189.88
2019-04-06T19:34:25.013Z,95186.03
2019-04-06T19:36:50.971Z,95191.44
2019-04-06T19:39:16.868Z,95202.48
2019-04-06T19:41:42.833Z,95190.33
2019-04-06T19:44:09.159Z,95189.70
2019-04-06T19:46:35.187Z,95193.58
2019-04-06T19:49:01.258Z,95153.49
2019-04-06T19:51:27.387Z,95185.30
2019-04-06T19:53:53.639Z,95188.34
2019-04-06T19:56:20.058Z,95190.26
2019-04-06T19:58:46.426Z,95187.44
2019-04-06T20:01:12.636Z,95191.18
2019-04-06T20:03:41.277Z,95187.91
2019-04-06T20:06:07.098Z,95183.97
2019-04-06T20:08:36.269Z,95186.50
2019-04-06T20:11:02.293Z,95196.17
2019-04-06T20:13:28.915Z,95172.44
2019-04-06T20:15:55.505Z,95171.41
2019-04-06T20:18:21.760Z,95172.99
2019-04-06T20:20:47.918Z,95177.05
2019-04-06T20:23:14.001Z,95174.22
2019-04-06T20:25:40.207Z,95169.36
2019-04-06T20:28:06.641Z,95093.14
2019-04-06T20:30:34.649Z,95174.05
2019-04-06T20:33:00.448Z,95178.52
2019-04-06T20:35:29.479Z,95172.12
2019-04-06T20:37:55.506Z,95161.55
2019-04-06T20:40:24.582Z,95178.00
2019-04-06T20:42:50.719Z,95187.46
2019-04-06T20:45:19.668Z,95170.92
2019-04-06T20:47:45.754Z,95185.95
2019-04-06T20:50:11.949Z,95168.83
2019-04-06T20:52:37.778Z,95171.97
2019-04-06T20:55:06.343Z,95167.73
2019-04-06T20:57:32.189Z,95166.02
2019-04-06T20:59:57.977Z,95173.58
2019-04-06T21:02:25.547Z,95167.34
2019-04-06T21:04:51.438Z,95184.95
2019-04-06T21:07:20.655Z,95175.75
2019-04-06T21:09:47.236Z,95171.20
2019-04-06T21:12:15.980Z,95173.91
2019-04-06T21:14:41.879Z,95170.27
2019-04-06T21:17:11.647Z,95162.97
2019-04-06T21:19:37.764Z,95181.38
2019-04-06T21:22:04.841Z,95167.67
2019-04-06T21:24:30.978Z,95162.05
2019-04-06T21:26:57.122Z,95161.67
2019-04-06T21:29:23.511Z,95157.08
2019-04-06T21:31:49.826Z,95159.81
2019-04-06T21:34:19.330Z,95159.94
2019-04-06T21:36:46.196Z,95178.48
2019-04-06T21:39:12.178Z,95162.89
2019-04-06T21:41:38.480Z,95159.95
2019-04-06T21:44:07.527Z,95155.83
2019-04-06T21:46:33.671Z,95174.47
2019-04-06T21:49:01.230Z,95163.73
2019-04-06T21:51:27.555Z,95160.30
2019-04-06T21:53:57.577Z,95160.55
2019-04-06T21:56:23.487Z,95178.84
2019-04-06T21:58:52.323Z,95168.34
2019-04-06T22:01:19.549Z,94967.46
2019-04-06T22:03:45.841Z,95163.17
2019-04-06T22:06:11.915Z,95161.64
2019-04-06T22:08:38.491Z,95174.16
2019-04-06T22:11:04.808Z,95166.13
2019-04-06T22:13:30.912Z,95170.52
2019-04-06T22:15:57.243Z,95175.58
2019-04-06T22:18:23.541Z,95167.21
2019-04-06T22:20:52.355Z,95177.64
2019-04-06T22:23:18.548Z,94940.30
2019-04-06T22:25:47.575Z,95175.52
2019-04-06T22:28:13.383Z,95194.49
2019-04-06T22:30:43.178Z,95179.52
2019-04-06T22:33:09.259Z,95174.09
2019-04-06T22:35:38.393Z,95175.77
2019-04-06T22:38:04.787Z,95194.48
2019-04-06T22:40:30.570Z,95178.34
2019-04-06T22:42:56.363Z,95176.34
2019-04-06T22:45:24.217Z,95173.65
2019-04-06T22:47:50.756Z,95171.73
2019-04-06T22:50:17.610Z,95170.79
2019-04-06T22:52:43.526Z,95165.15
2019-04-06T22:55:10.170Z,95167.63
2019-04-06T22:57:39.763Z,95168.47
2019-04-06T23:00:08.007Z,95163.87
2019-04-06T23:02:42.758Z,95160.09
2019-04-06T23:05:25.577Z,95166.69
2019-04-06T23:07:51.715Z,95164.45
2019-04-06T23:10:18.483Z,95164.91
2019-04-06T23:12:44.839Z,95168.09
2019-04-06T23:15:11.821Z,95161.37
2019-04-06T23:17:38.536Z,95165.50
2019-04-06T23:20:04.714Z,95166.91
2019-04-06T23:22:31.742Z,95171.39
2019-04-06T23:24:58.031Z,95163.13
2019-04-06T23:27:24.354Z,95157.46
2019-04-06T23:29:50.805Z,95158.38
2019-04-06T23:32:16.979Z,95160.02
2019-04-06T23:34:43.101Z,95165.09
2019-04-06T23:37:08.931Z,95160.97
2019-04-06T23:39:34.969Z,95161.56
2019-04-06T23:42:01.008Z,95156.94
2019-04-06T23:44:27.070Z,95165.20
2019-04-06T23:46:53.122Z,95167.09
2019-04-06T23:49:19.102Z,95166.15
2019-04-06T23:51:45.243Z,95173.19
2019-04-06T23:54:11.101Z,95168.25
2019-04-06T23:56:36.916Z,95171.33
2019-04-06T23:59:03.357Z,95158.94
